Time;durP1;ratioP1;P1;durP2;ratioP2;P2;SDS_P1;SDS_P2;PMS_P1;PMS_P2;Temp;Humidity;BMP_temperature;BMP_pressure;BME280_temperature;BME280_humidity;BME280_pressure;Samples;Min_cycle;Max_cycle;Signal;HPM_P1;HPM_P2
2022/03/18 00:01:28;;;;;;;16.83;11.47;;;2.60;99.90;;;;;;4954450;28;20576;-77
2022/03/18 00:03:57;;;;;;;15.77;12.53;;;2.60;99.90;;;;;;4956008;28;20437;-78
2022/03/18 00:06:26;;;;;;;16.93;11.73;;;2.50;99.90;;;;;;4938678;28;20483;-78
2022/03/18 00:08:54;;;;;;;13.83;10.80;;;2.50;99.90;;;;;;4936718;29;20439;-77
2022/03/18 00:11:23;;;;;;;15.50;11.80;;;2.50;99.90;;;;;;4936715;29;20532;-78
2022/03/18 00:13:53;;;;;;;13.20;11.37;;;2.50;99.90;;;;;;4936827;29;20448;-78
2022/03/18 00:16:21;;;;;;;11.63;10.03;;;2.40;99.90;;;;;;4935162;29;20600;-77
2022/03/18 00:18:49;;;;;;;11.20;10.03;;;2.40;99.90;;;;;;4936395;29;20450;-78
2022/03/18 00:21:17;;;;;;;12.27;10.40;;;2.40;99.90;;;;;;4935369;29;20483;-77
2022/03/18 00:23:46;;;;;;;13.80;9.30;;;2.40;99.90;;;;;;4953599;29;20457;-78
2022/03/18 00:26:14;;;;;;;15.93;10.93;;;2.30;99.90;;;;;;4946127;28;20553;-78
2022/03/18 00:28:43;;;;;;;16.70;9.53;;;2.30;99.90;;;;;;4935070;29;20445;-78
2022/03/18 00:31:14;;;;;;;12.70;9.87;;;2.30;99.90;;;;;;4935081;29;20479;-78
2022/03/18 00:33:42;;;;;;;12.50;8.83;;;2.20;99.90;;;;;;4934924;29;20511;-78
2022/03/18 00:36:10;;;;;;;10.43;9.00;;;2.20;99.90;;;;;;4935025;29;21021;-77
2022/03/18 00:38:39;;;;;;;12.60;8.77;;;2.20;99.90;;;;;;4934824;29;20551;-78
2022/03/18 00:41:08;;;;;;;11.93;8.87;;;2.20;99.90;;;;;;4951193;29;20497;-78
2022/03/18 00:43:36;;;;;;;13.50;8.20;;;2.10;99.90;;;;;;4955162;28;20492;-78
2022/03/18 00:46:04;;;;;;;10.13;7.60;;;2.10;99.90;;;;;;4955373;28;20470;-78
2022/03/18 00:54:08;;;;;;;11.27;7.60;;;2.10;99.90;;;;;;4934012;29;20520;-78
2022/03/18 00:56:36;;;;;;;11.67;7.60;;;2.00;99.90;;;;;;4957778;28;20486;-78
2022/03/18 00:59:04;;;;;;;9.83;6.73;;;2.00;99.90;;;;;;4957598;28;20461;-78
2022/03/18 01:01:33;;;;;;;8.33;6.43;;;2.00;99.90;;;;;;4959140;28;20953;-78
2022/03/18 01:04:04;;;;;;;7.97;6.60;;;2.00;99.90;;;;;;4957639;29;20870;-77
2022/03/18 01:06:34;;;;;;;9.57;7.23;;;1.90;99.90;;;;;;4957616;28;20481;-77
2022/03/18 01:09:03;;;;;;;10.83;6.90;;;1.90;99.90;;;;;;4944488;28;20462;-77
2022/03/18 01:11:32;;;;;;;10.47;7.20;;;1.90;99.90;;;;;;4957670;29;20795;-77
2022/03/18 01:14:00;;;;;;;9.97;6.70;;;1.90;99.90;;;;;;4957643;29;20506;-77
2022/03/18 01:16:29;;;;;;;10.77;6.90;;;1.80;99.90;;;;;;4957424;28;20473;-78
2022/03/18 01:18:57;;;;;;;12.70;6.80;;;1.80;99.90;;;;;;4957365;28;20520;-78
2022/03/18 01:21:27;;;;;;;9.13;6.40;;;1.80;99.90;;;;;;4940155;28;20534;-78
2022/03/18 01:23:55;;;;;;;10.97;6.70;;;1.80;99.90;;;;;;4940790;29;21005;-77
2022/03/18 01:26:24;;;;;;;12.73;6.83;;;1.70;99.90;;;;;;4947002;28;20861;-78
2022/03/18 01:28:52;;;;;;;9.20;6.60;;;1.70;99.90;;;;;;4938060;29;20455;-78
2022/03/18 01:31:21;;;;;;;13.10;6.80;;;1.70;99.90;;;;;;4938009;29;20962;-78
2022/03/18 01:33:50;;;;;;;11.20;6.43;;;1.70;99.90;;;;;;4938048;29;20963;-78
2022/03/18 01:36:18;;;;;;;7.03;5.90;;;1.60;99.90;;;;;;4937780;29;20480;-78
2022/03/18 01:38:48;;;;;;;8.43;6.00;;;1.60;99.90;;;;;;4937870;29;20544;-78
2022/03/18 01:41:16;;;;;;;9.53;5.60;;;1.60;99.90;;;;;;4937722;28;20559;-77
2022/03/18 01:43:46;;;;;;;9.23;5.70;;;1.60;99.90;;;;;;4939316;29;20441;-77
2022/03/18 01:46:15;;;;;;;11.57;6.37;;;1.60;99.90;;;;;;4937862;28;20515;-78
2022/03/18 01:48:44;;;;;;;9.97;5.90;;;1.60;99.90;;;;;;4937652;29;20550;-78
2022/03/18 01:51:15;;;;;;;8.07;5.60;;;1.50;99.90;;;;;;4940704;29;20452;-78
2022/03/18 01:53:45;;;;;;;10.80;6.00;;;1.50;99.90;;;;;;4953407;29;20988;-78
2022/03/18 01:56:15;;;;;;;9.03;5.57;;;1.50;99.90;;;;;;4957938;28;20541;-78
2022/03/18 01:58:43;;;;;;;10.80;6.33;;;1.50;99.90;;;;;;4956738;28;20832;-77
2022/03/18 02:01:11;;;;;;;7.90;5.40;;;1.50;99.90;;;;;;4955494;28;20883;-78
2022/03/18 02:03:40;;;;;;;11.67;5.90;;;1.40;99.90;;;;;;4956530;28;20474;-78
2022/03/18 02:06:08;;;;;;;7.77;5.00;;;1.40;99.90;;;;;;4958040;28;20483;-78
2022/03/18 02:08:36;;;;;;;12.97;6.27;;;1.40;99.90;;;;;;4956682;28;20455;-77
2022/03/18 02:11:07;;;;;;;11.30;6.23;;;1.40;99.90;;;;;;4949009;28;20456;-77
2022/03/18 02:13:36;;;;;;;6.53;5.30;;;1.40;99.90;;;;;;4937289;29;20546;-78
2022/03/18 02:16:05;;;;;;;11.77;5.87;;;1.40;99.90;;;;;;4937808;29;20818;-77
2022/03/18 02:18:33;;;;;;;9.13;5.80;;;1.30;99.90;;;;;;4938667;29;20987;-78
2022/03/18 02:21:01;;;;;;;10.07;6.13;;;1.30;99.90;;;;;;4938649;29;21033;-77
2022/03/18 02:23:31;;;;;;;7.43;4.57;;;1.30;99.90;;;;;;4938338;29;20479;-78
2022/03/18 02:25:59;;;;;;;9.87;5.90;;;1.30;99.90;;;;;;4936919;29;20590;-77
2022/03/18 02:28:27;;;;;;;7.20;4.67;;;1.30;99.90;;;;;;4937042;29;20955;-78
2022/03/18 02:30:55;;;;;;;7.33;4.80;;;1.30;99.90;;;;;;4936968;28;20842;-78
2022/03/18 02:33:23;;;;;;;13.63;7.57;;;1.30;99.90;;;;;;4937177;29;20820;-78
2022/03/18 02:35:53;;;;;;;8.60;5.27;;;1.30;99.90;;;;;;4941927;29;20486;-78
2022/03/18 02:38:21;;;;;;;8.40;5.33;;;1.20;99.90;;;;;;4955482;28;20551;-78
2022/03/18 02:40:51;;;;;;;8.30;5.50;;;1.20;99.90;;;;;;4946818;29;20457;-78
2022/03/18 02:43:19;;;;;;;5.87;4.70;;;1.20;99.90;;;;;;4956015;28;20821;-78
2022/03/18 02:45:47;;;;;;;10.03;4.40;;;1.20;99.90;;;;;;4955972;28;20474;-77
2022/03/18 02:48:15;;;;;;;7.50;5.27;;;1.20;99.90;;;;;;4955760;29;20458;-77
2022/03/18 02:50:44;;;;;;;5.47;4.50;;;1.20;99.90;;;;;;4957126;28;20534;-78
2022/03/18 02:53:12;;;;;;;9.07;5.20;;;1.20;99.90;;;;;;4955847;28;20503;-78
2022/03/18 02:55:40;;;;;;;9.87;5.50;;;1.10;99.90;;;;;;4939959;28;21034;-78
2022/03/18 02:58:10;;;;;;;7.77;5.13;;;1.10;99.90;;;;;;4936913;29;20452;-78
2022/03/18 03:00:38;;;;;;;8.47;4.97;;;1.10;99.90;;;;;;4942519;29;20454;-78
2022/03/18 03:03:07;;;;;;;6.90;5.30;;;1.10;99.90;;;;;;4955594;29;20830;-78
2022/03/18 03:08:21;;;;;;;7.53;4.30;;;1.10;99.90;;;;;;4955746;29;20542;-78
2022/03/18 03:10:49;;;;;;;9.07;5.07;;;1.10;99.90;;;;;;4955316;28;21051;-77
2022/03/18 03:13:19;;;;;;;8.37;5.63;;;1.00;99.90;;;;;;4956592;28;20455;-78
2022/03/18 03:15:47;;;;;;;9.80;5.10;;;1.00;99.90;;;;;;4949734;28;20479;-78
2022/03/18 03:18:15;;;;;;;8.37;4.80;;;1.00;99.90;;;;;;4936018;29;21042;-77
2022/03/18 03:20:44;;;;;;;8.87;5.23;;;1.00;99.90;;;;;;4936114;29;20977;-78
2022/03/18 03:23:12;;;;;;;7.80;4.70;;;1.00;99.90;;;;;;4936153;29;21008;-77
2022/03/18 03:25:40;;;;;;;9.20;4.97;;;1.00;99.90;;;;;;4936138;29;20554;-77
2022/03/18 03:28:08;;;;;;;7.50;5.10;;;1.00;99.90;;;;;;4936544;29;20462;-77
2022/03/18 03:30:38;;;;;;;8.10;5.33;;;0.90;99.90;;;;;;4936199;29;20459;-78
2022/03/18 03:33:06;;;;;;;8.63;6.37;;;0.90;99.90;;;;;;4935702;29;20462;-78
2022/03/18 03:35:34;;;;;;;9.23;5.63;;;0.90;99.90;;;;;;4947763;28;20494;-78
2022/03/18 03:38:03;;;;;;;7.80;5.20;;;0.90;99.90;;;;;;4954860;28;20541;-77
2022/03/18 03:40:32;;;;;;;7.83;5.03;;;0.90;99.90;;;;;;4951855;28;20462;-78
2022/03/18 03:43:00;;;;;;;9.50;5.27;;;0.90;99.90;;;;;;4935801;29;20482;-78
2022/03/18 03:45:28;;;;;;;12.67;5.80;;;0.90;99.90;;;;;;4935570;29;20488;-78
2022/03/18 03:47:57;;;;;;;11.37;5.30;;;0.90;99.90;;;;;;4935743;29;20965;-78
2022/03/18 03:50:26;;;;;;;9.00;5.13;;;0.90;99.90;;;;;;4937516;29;20502;-78
2022/03/18 03:52:55;;;;;;;9.47;5.53;;;0.90;99.90;;;;;;4947050;28;20448;-77
2022/03/18 03:55:23;;;;;;;14.60;6.13;;;0.80;99.90;;;;;;4935424;29;20526;-78
2022/03/18 03:57:54;;;;;;;6.87;5.43;;;0.80;99.90;;;;;;4951432;28;20482;-77
2022/03/18 04:00:22;;;;;;;11.60;6.63;;;0.80;99.90;;;;;;4935499;29;20507;-78
2022/03/18 04:02:50;;;;;;;9.20;5.17;;;0.80;99.90;;;;;;4937037;29;20831;-78
2022/03/18 04:05:20;;;;;;;9.37;5.80;;;0.80;99.90;;;;;;4935204;28;20476;-77
2022/03/18 04:07:48;;;;;;;7.27;5.87;;;0.80;99.90;;;;;;4935390;28;20819;-78
2022/03/18 04:10:19;;;;;;;8.80;5.67;;;0.80;99.90;;;;;;4936765;29;20632;-77
2022/03/18 04:12:50;;;;;;;9.90;5.70;;;0.80;99.90;;;;;;4935376;28;20448;-77
2022/03/18 04:15:19;;;;;;;8.27;6.03;;;0.80;99.90;;;;;;4936264;29;20877;-77
2022/03/18 04:17:51;;;;;;;6.47;4.73;;;0.70;99.90;;;;;;4949549;29;20486;-78
2022/03/18 04:20:22;;;;;;;8.73;5.20;;;0.70;99.90;;;;;;4946354;29;20480;-78
2022/03/18 04:22:51;;;;;;;7.53;5.80;;;0.70;99.90;;;;;;4934726;29;20459;-77
2022/03/18 04:25:21;;;;;;;10.23;5.03;;;0.70;99.90;;;;;;4948804;28;20485;-77
2022/03/18 04:27:50;;;;;;;8.37;6.00;;;0.70;99.90;;;;;;4954256;28;20451;-77
2022/03/18 04:30:18;;;;;;;9.57;5.90;;;0.70;99.90;;;;;;4955382;28;20813;-78
2022/03/18 04:32:46;;;;;;;8.17;6.10;;;0.70;99.90;;;;;;4955643;28;20499;-77
2022/03/18 04:35:14;;;;;;;9.50;6.20;;;0.70;99.90;;;;;;4956412;28;20573;-77
2022/03/18 04:37:44;;;;;;;8.90;7.13;;;0.70;99.90;;;;;;4957957;28;20454;-78
2022/03/18 04:40:14;;;;;;;5.97;5.10;;;0.60;99.90;;;;;;4958051;28;20546;-77
2022/03/18 04:42:44;;;;;;;12.70;6.67;;;0.60;99.90;;;;;;4958253;28;20558;-77
2022/03/18 04:45:13;;;;;;;8.73;6.00;;;0.60;99.90;;;;;;4959978;28;20545;-77
2022/03/18 04:47:41;;;;;;;9.53;6.93;;;0.60;99.90;;;;;;4939373;28;20461;-77
2022/03/18 04:50:11;;;;;;;15.07;9.77;;;0.60;99.90;;;;;;4939069;29;20455;-77
2022/03/18 04:52:39;;;;;;;13.93;8.80;;;0.60;99.90;;;;;;4937480;29;20454;-77
2022/03/18 04:55:10;;;;;;;13.50;9.13;;;0.60;99.90;;;;;;4947939;28;20577;-77
2022/03/18 04:57:38;;;;;;;11.37;7.50;;;0.60;99.90;;;;;;4957229;29;20927;-78
2022/03/18 05:00:08;;;;;;;12.30;7.80;;;0.60;99.90;;;;;;4954681;28;20461;-77
2022/03/18 05:02:37;;;;;;;11.40;6.80;;;0.60;99.90;;;;;;4955697;28;20494;-77
2022/03/18 05:05:08;;;;;;;11.47;7.00;;;0.60;99.90;;;;;;4954070;28;20505;-77
2022/03/18 05:07:38;;;;;;;8.50;6.53;;;0.60;99.90;;;;;;4935771;29;20455;-77
2022/03/18 05:10:09;;;;;;;8.10;6.00;;;0.50;99.90;;;;;;4945788;28;20542;-77
2022/03/18 05:12:38;;;;;;;13.93;6.53;;;0.60;99.90;;;;;;4934779;29;20875;-77
2022/03/18 05:15:08;;;;;;;8.63;6.63;;;0.60;99.90;;;;;;4934763;29;20477;-77
2022/03/18 05:17:36;;;;;;;14.30;6.83;;;0.50;99.90;;;;;;4936212;29;20428;-77
2022/03/18 05:20:07;;;;;;;9.23;6.60;;;0.50;99.90;;;;;;4934969;29;20463;-77
2022/03/18 05:22:35;;;;;;;13.53;6.50;;;0.50;99.90;;;;;;4948177;29;20493;-77
2022/03/18 05:25:03;;;;;;;11.23;7.47;;;0.50;99.90;;;;;;4953565;28;20565;-77
2022/03/18 05:27:33;;;;;;;9.10;7.13;;;0.50;99.90;;;;;;4955135;29;20843;-77
2022/03/18 05:30:01;;;;;;;10.10;7.60;;;0.50;99.90;;;;;;4953691;28;20975;-77
2022/03/18 05:32:29;;;;;;;15.33;8.03;;;0.50;99.90;;;;;;4955179;28;20442;-77
2022/03/18 05:34:57;;;;;;;10.90;7.57;;;0.50;99.90;;;;;;4950995;28;20487;-77
2022/03/18 05:37:25;;;;;;;12.93;7.60;;;0.50;99.90;;;;;;4949005;29;20465;-77
2022/03/18 05:39:53;;;;;;;11.47;7.50;;;0.50;99.90;;;;;;4957044;29;20478;-77
2022/03/18 05:42:22;;;;;;;8.07;6.80;;;0.50;99.90;;;;;;4939621;28;21021;-77
2022/03/18 05:44:52;;;;;;;8.77;6.97;;;0.50;99.90;;;;;;4937883;29;21004;-77
2022/03/18 05:47:20;;;;;;;8.17;7.07;;;0.50;99.90;;;;;;4937867;28;20894;-77
2022/03/18 05:49:48;;;;;;;11.87;7.17;;;0.50;99.90;;;;;;4941697;29;20833;-77
2022/03/18 05:52:16;;;;;;;10.20;7.27;;;0.50;99.90;;;;;;4952458;29;20487;-77
2022/03/18 05:54:44;;;;;;;8.73;7.70;;;0.50;99.90;;;;;;4938787;28;20992;-77
2022/03/18 05:57:12;;;;;;;11.67;7.47;;;0.50;99.90;;;;;;4937594;28;20534;-77
2022/03/18 05:59:40;;;;;;;10.13;7.80;;;0.50;99.90;;;;;;4950644;28;20784;-77
2022/03/18 06:02:10;;;;;;;13.20;7.87;;;0.50;99.90;;;;;;4955872;28;21194;-77
2022/03/18 06:04:39;;;;;;;10.10;8.30;;;0.50;99.90;;;;;;4952741;28;20475;-77
2022/03/18 06:07:07;;;;;;;9.70;7.33;;;0.50;99.90;;;;;;4952780;29;20546;-76
2022/03/18 06:12:21;;;;;;;10.30;8.57;;;0.60;99.90;;;;;;4953236;29;20459;-76
2022/03/18 06:14:49;;;;;;;9.37;8.20;;;0.60;99.90;;;;;;4953251;29;20550;-76
2022/03/18 06:17:18;;;;;;;10.90;8.43;;;0.60;99.90;;;;;;4937738;28;20538;-76
2022/03/18 06:19:47;;;;;;;12.00;7.90;;;0.60;99.90;;;;;;4937289;29;20522;-76
2022/03/18 06:22:15;;;;;;;8.83;8.03;;;0.60;99.90;;;;;;4949855;29;20549;-76
2022/03/18 06:24:44;;;;;;;10.40;9.03;;;0.70;99.90;;;;;;4955512;28;20495;-77
2022/03/18 06:27:12;;;;;;;12.77;8.67;;;0.70;99.90;;;;;;4958180;28;20459;-77
2022/03/18 06:29:43;;;;;;;14.10;12.10;;;0.80;99.90;;;;;;4957696;29;20495;-76
2022/03/18 06:32:11;;;;;;;14.37;11.43;;;0.90;99.90;;;;;;4958536;29;20440;-76
2022/03/18 06:34:41;;;;;;;12.37;8.83;;;1.00;99.90;;;;;;4945872;28;20522;-77
2022/03/18 06:37:10;;;;;;;16.17;10.30;;;1.20;99.90;;;;;;4936952;29;20471;-76
2022/03/18 06:39:38;;;;;;;10.50;9.33;;;1.40;99.90;;;;;;4936909;28;20475;-76
2022/03/18 06:42:06;;;;;;;16.40;10.40;;;1.50;99.90;;;;;;4937948;29;20443;-76
2022/03/18 06:44:35;;;;;;;18.07;11.10;;;1.70;99.90;;;;;;4936621;28;20512;-76
2022/03/18 06:47:05;;;;;;;13.90;10.60;;;1.90;99.90;;;;;;4941767;29;20902;-76
2022/03/18 06:49:33;;;;;;;13.00;9.50;;;2.00;99.90;;;;;;4957621;29;20551;-76
2022/03/18 06:52:04;;;;;;;11.80;9.87;;;2.20;99.90;;;;;;4955641;28;20458;-76
2022/03/18 06:54:32;;;;;;;12.67;9.17;;;2.30;99.90;;;;;;4955677;28;20453;-76
2022/03/18 06:57:01;;;;;;;14.77;9.77;;;2.40;99.90;;;;;;4955640;28;20875;-76
2022/03/18 06:59:29;;;;;;;14.90;10.27;;;2.50;99.90;;;;;;4955901;29;20463;-77
2022/03/18 07:01:58;;;;;;;15.13;11.13;;;2.60;99.90;;;;;;4955527;29;20456;-77
2022/03/18 07:04:26;;;;;;;12.70;9.40;;;2.60;99.90;;;;;;4954584;28;20488;-77
2022/03/18 07:06:54;;;;;;;12.03;10.87;;;2.70;99.90;;;;;;4938237;28;20965;-77
2022/03/18 07:09:24;;;;;;;18.63;10.70;;;2.80;99.90;;;;;;4936360;29;20454;-77
2022/03/18 07:11:52;;;;;;;11.43;9.40;;;2.80;99.90;;;;;;4955244;28;20458;-78
2022/03/18 07:14:20;;;;;;;12.33;10.17;;;2.90;99.90;;;;;;4959702;28;20498;-79
2022/03/18 07:19:34;;;;;;;11.80;10.43;;;3.10;99.90;;;;;;4959114;28;20948;-79
2022/03/18 07:22:03;;;;;;;16.63;10.57;;;3.10;99.90;;;;;;4950630;28;21085;-79
2022/03/18 07:24:33;;;;;;;12.73;11.30;;;3.20;99.90;;;;;;4940278;28;20521;-78
2022/03/18 07:27:01;;;;;;;13.67;9.57;;;3.20;99.90;;;;;;4939987;29;20472;-79
2022/03/18 07:29:29;;;;;;;10.20;9.20;;;3.30;99.90;;;;;;4937720;29;20456;-76
2022/03/18 07:31:58;;;;;;;12.63;9.67;;;3.30;99.90;;;;;;4936597;29;20451;-76
2022/03/18 07:34:27;;;;;;;10.60;9.10;;;3.40;99.90;;;;;;4941024;29;20911;-77
2022/03/18 07:36:55;;;;;;;12.80;9.20;;;3.40;99.90;;;;;;4954967;28;20497;-77
2022/03/18 07:39:23;;;;;;;13.30;10.13;;;3.50;99.90;;;;;;4955092;28;20455;-77
2022/03/18 07:41:52;;;;;;;11.30;9.80;;;3.60;99.90;;;;;;4941297;28;20550;-76
2022/03/18 07:44:20;;;;;;;15.30;10.07;;;3.70;99.90;;;;;;4943692;29;20501;-77
2022/03/18 07:46:49;;;;;;;12.73;9.23;;;3.80;99.90;;;;;;4936916;29;20568;-77
2022/03/18 07:49:17;;;;;;;10.73;9.60;;;3.90;99.90;;;;;;4935611;29;20452;-77
2022/03/18 07:51:45;;;;;;;14.67;10.13;;;4.00;99.90;;;;;;4936764;29;20448;-77
2022/03/18 07:54:13;;;;;;;10.27;9.20;;;4.10;99.90;;;;;;4935336;29;20488;-77
2022/03/18 07:56:41;;;;;;;15.73;11.60;;;4.20;99.90;;;;;;4935664;29;20475;-77
2022/03/18 07:59:14;;;;;;;16.60;11.47;;;4.30;99.90;;;;;;4934784;29;20463;-76
2022/03/18 08:01:42;;;;;;;18.83;11.00;;;4.40;99.90;;;;;;4947880;28;20502;-77
2022/03/18 08:04:12;;;;;;;10.53;8.67;;;4.50;99.90;;;;;;4940892;28;20463;-77
2022/03/18 08:06:41;;;;;;;11.03;8.57;;;4.70;99.90;;;;;;4947909;29;20490;-77
2022/03/18 08:09:09;;;;;;;10.80;8.70;;;4.90;99.90;;;;;;4961021;28;20441;-77
2022/03/18 08:11:37;;;;;;;9.10;8.30;;;5.10;99.90;;;;;;4975659;28;20552;-78
2022/03/18 08:14:06;;;;;;;13.70;8.40;;;5.30;99.90;;;;;;4973081;28;21062;-77
2022/03/18 08:16:35;;;;;;;10.37;9.10;;;5.60;99.90;;;;;;4961510;28;20471;-78
2022/03/18 08:19:03;;;;;;;9.97;8.10;;;5.80;99.90;;;;;;4956909;28;20881;-78
2022/03/18 08:21:34;;;;;;;12.00;8.60;;;5.90;99.90;;;;;;4938664;28;20659;-78
2022/03/18 08:24:04;;;;;;;10.30;7.60;;;6.00;99.90;;;;;;4940784;29;20447;-78
2022/03/18 08:26:36;;;;;;;12.70;8.07;;;6.10;99.90;;;;;;4945129;28;20574;-78
2022/03/18 08:29:05;;;;;;;12.50;8.07;;;6.30;99.90;;;;;;4938830;29;20446;-78
2022/03/18 08:31:33;;;;;;;10.73;7.77;;;6.40;99.90;;;;;;4940689;29;20518;-78
2022/03/18 08:34:03;;;;;;;12.30;7.50;;;6.60;99.90;;;;;;4939223;29;20578;-78
2022/03/18 08:36:31;;;;;;;9.33;7.87;;;6.90;99.90;;;;;;4940359;28;20885;-78
2022/03/18 08:39:00;;;;;;;10.47;7.63;;;7.00;99.90;;;;;;4941636;29;20808;-78
2022/03/18 08:41:28;;;;;;;9.03;7.57;;;7.10;99.90;;;;;;4958224;28;20519;-78
2022/03/18 08:43:56;;;;;;;14.93;7.53;;;7.30;99.90;;;;;;4958512;28;20909;-78
2022/03/18 08:46:25;;;;;;;11.93;7.40;;;7.40;99.90;;;;;;4958314;28;20564;-79
2022/03/18 08:48:53;;;;;;;8.60;6.17;;;7.40;99.90;;;;;;4960660;28;20959;-79
2022/03/18 08:51:24;;;;;;;9.47;6.23;;;7.50;99.90;;;;;;4959617;28;20534;-79
2022/03/18 08:53:52;;;;;;;11.33;7.07;;;7.50;99.90;;;;;;4944707;28;20575;-79
2022/03/18 08:56:20;;;;;;;12.10;7.10;;;7.50;99.90;;;;;;4941962;29;20479;-78
2022/03/18 08:58:49;;;;;;;9.77;7.40;;;7.60;99.90;;;;;;4939553;29;20567;-79
2022/03/18 09:01:17;;;;;;;10.43;6.23;;;7.80;99.90;;;;;;4942337;29;20463;-79
2022/03/18 09:03:47;;;;;;;11.97;6.80;;;7.90;99.90;;;;;;4939838;28;20465;-79
2022/03/18 09:06:15;;;;;;;15.13;12.10;;;8.20;99.90;;;;;;4955085;29;20478;-79
2022/03/18 09:08:45;;;;;;;11.10;7.20;;;8.30;99.90;;;;;;4959702;28;20459;-79
2022/03/18 09:11:14;;;;;;;11.00;6.37;;;8.50;99.90;;;;;;4963747;28;20450;-79
2022/03/18 09:13:42;;;;;;;11.43;6.17;;;8.70;99.90;;;;;;4959328;28;20463;-78
2022/03/18 09:16:11;;;;;;;8.40;6.40;;;8.80;99.90;;;;;;4964346;28;20542;-79
2022/03/18 09:19:00;;;;;;;11.33;6.50;;;9.00;99.90;;;;;;4965913;28;21014;-79
2022/03/18 09:21:28;;;;;;;35.53;31.80;;;9.10;99.90;;;;;;4965649;28;20459;-80
2022/03/18 09:23:58;;;;;;;11.97;8.50;;;9.20;99.90;;;;;;4964112;29;20462;-79
2022/03/18 09:26:26;;;;;;;10.23;8.30;;;9.30;99.90;;;;;;4966755;28;21014;-80
2022/03/18 09:28:55;;;;;;;12.60;7.30;;;9.40;99.90;;;;;;4954531;28;20461;-80
2022/03/18 09:31:24;;;;;;;12.30;8.43;;;9.40;99.90;;;;;;4948381;29;20455;-79
2022/03/18 09:33:52;;;;;;;11.73;8.73;;;9.50;99.90;;;;;;4946319;29;20451;-79
2022/03/18 09:36:21;;;;;;;12.23;7.67;;;9.60;99.90;;;;;;4945583;29;21099;-79
2022/03/18 09:38:52;;;;;;;10.60;7.80;;;9.60;99.90;;;;;;4947090;29;20454;-79
2022/03/18 09:41:22;;;;;;;14.07;7.93;;;9.60;99.90;;;;;;4946331;29;20447;-80
2022/03/18 09:43:52;;;;;;;10.83;8.10;;;9.70;99.90;;;;;;4944702;29;20459;-80
2022/03/18 09:46:21;;;;;;;11.40;7.50;;;9.80;99.90;;;;;;4945533;29;20964;-80
2022/03/18 09:49:01;;;;;;;13.50;9.37;;;9.80;99.90;;;;;;4945635;29;20427;-81
2022/03/18 09:51:29;;;;;;;11.47;9.30;;;9.90;99.90;;;;;;4960988;29;20968;-80
2022/03/18 09:54:26;;;;;;;16.00;9.80;;;9.90;99.90;;;;;;4957964;28;20491;-80
2022/03/18 09:56:57;;;;;;;9.67;8.70;;;9.90;99.90;;;;;;4943629;29;20483;-80
2022/03/18 09:59:27;;;;;;;13.43;9.63;;;10.00;99.90;;;;;;4945442;29;20439;-80
2022/03/18 10:02:25;;;;;;;15.30;10.00;;;10.00;99.90;;;;;;4943339;29;20454;-80
2022/03/18 10:04:55;;;;;;;13.93;10.20;;;10.10;99.90;;;;;;4943175;29;20542;-80
2022/03/18 10:07:25;;;;;;;13.37;9.53;;;10.10;99.90;;;;;;4963303;29;20478;-80
2022/03/18 10:10:05;;;;;;;11.97;10.70;;;10.20;99.90;;;;;;4967029;28;20445;-80
2022/03/18 10:12:36;;;;;;;12.50;11.20;;;10.30;99.90;;;;;;4965369;28;20461;-80
2022/03/18 10:15:11;;;;;;;16.73;11.60;;;10.30;99.90;;;;;;4963835;28;20565;-80
2022/03/18 10:17:47;;;;;;;15.67;10.70;;;10.30;99.90;;;;;;4964708;29;20447;-80
2022/03/18 10:20:33;;;;;;;13.47;10.40;;;10.40;99.90;;;;;;4964264;28;20493;-80
2022/03/18 10:23:18;;;;;;;19.70;11.30;;;10.40;99.90;;;;;;4955640;28;20807;-80
2022/03/18 10:25:50;;;;;;;14.37;11.80;;;10.50;99.90;;;;;;4944876;28;20507;-80
2022/03/18 10:28:36;;;;;;;17.17;14.47;;;10.50;99.90;;;;;;4944468;28;20815;-80
2022/03/18 10:31:14;;;;;;;22.40;18.73;;;10.50;99.90;;;;;;4945490;29;20452;-80
2022/03/18 10:37:04;;;;;;;17.03;11.50;;;10.50;99.90;;;;;;4945922;29;20443;-80
2022/03/18 10:39:30;;;;;;;14.20;10.90;;;10.60;99.90;;;;;;4946573;29;20463;-79
2022/03/18 10:42:01;;;;;;;14.17;11.53;;;10.60;99.90;;;;;;4945352;29;20466;-80
2022/03/18 10:44:42;;;;;;;16.80;11.50;;;10.60;99.90;;;;;;4950439;29;20490;-81
2022/03/18 10:47:23;;;;;;;14.87;13.30;;;10.60;99.90;;;;;;4964166;28;20474;-80
2022/03/18 10:49:52;;;;;;;21.30;12.10;;;10.70;99.90;;;;;;4950490;29;20458;-81
2022/03/18 10:52:23;;;;;;;18.27;11.90;;;10.70;99.90;;;;;;4963709;29;20457;-80
2022/03/18 10:54:54;;;;;;;15.60;11.27;;;10.70;99.90;;;;;;4957708;28;20570;-80
2022/03/18 10:57:22;;;;;;;17.23;11.40;;;10.80;99.90;;;;;;4946864;29;20476;-79
2022/03/18 10:59:54;;;;;;;16.10;11.80;;;10.80;99.90;;;;;;4946574;29;20527;-80
2022/03/18 11:02:25;;;;;;;15.03;10.77;;;10.90;99.90;;;;;;4948939;29;20440;-81
2022/03/18 11:04:53;;;;;;;14.13;11.03;;;10.90;99.90;;;;;;4950043;29;20474;-80
2022/03/18 11:07:31;;;;;;;12.93;11.43;;;10.90;99.90;;;;;;4976871;28;20459;-80
2022/03/18 11:12:49;;;;;;;15.73;11.03;;;11.00;99.90;;;;;;4975774;28;20439;-79
2022/03/18 11:15:22;;;;;;;14.20;11.40;;;11.00;99.90;;;;;;4956633;29;20475;-80
2022/03/18 11:17:51;;;;;;;14.33;11.50;;;11.10;99.90;;;;;;4944597;28;20459;-80
2022/03/18 11:20:23;;;;;;;15.13;12.10;;;11.20;99.90;;;;;;4944309;29;20475;-80
2022/03/18 11:22:51;;;;;;;16.70;11.23;;;11.20;99.90;;;;;;4943442;29;20526;-79
2022/03/18 11:25:21;;;;;;;12.20;9.70;;;11.30;99.90;;;;;;4944633;29;20459;-80
2022/03/18 11:27:50;;;;;;;11.80;10.60;;;11.30;99.90;;;;;;4960843;29;20468;-80
2022/03/18 11:30:22;;;;;;;13.23;9.87;;;11.30;99.90;;;;;;4962976;28;20494;-80
2022/03/18 11:33:22;;;;;;;12.10;9.00;;;11.40;99.90;;;;;;4958721;28;20487;-80
2022/03/18 11:36:12;;;;;;;13.20;10.17;;;11.40;99.90;;;;;;4942198;28;20487;-81
2022/03/18 11:39:08;;;;;;;12.50;9.37;;;11.50;99.90;;;;;;4941257;29;20448;-80
2022/03/18 11:41:52;;;;;;;15.80;10.30;;;11.50;99.90;;;;;;4944915;29;20503;-81
2022/03/18 11:44:55;;;;;;;11.00;9.90;;;11.50;99.90;;;;;;4945950;29;20862;-80
2022/03/18 11:47:45;;;;;;;12.47;9.93;;;11.60;99.90;;;;;;4945577;29;20892;-80
2022/03/18 11:50:40;;;;;;;12.23;9.30;;;11.60;99.90;;;;;;4945057;29;20874;-80
2022/03/18 11:53:13;;;;;;;12.10;9.00;;;11.70;99.90;;;;;;4948519;29;20486;-81
2022/03/18 11:55:44;;;;;;;14.03;9.17;;;11.70;99.90;;;;;;4944163;29;20480;-80
2022/03/18 11:58:30;;;;;;;12.00;9.90;;;11.80;99.90;;;;;;4944739;29;20452;-81
2022/03/18 12:00:58;;;;;;;15.03;9.10;;;11.90;99.90;;;;;;4944095;29;20499;-81
2022/03/18 12:03:36;;;;;;;12.53;8.93;;;11.90;99.90;;;;;;4955158;29;20548;-80
2022/03/18 12:06:05;;;;;;;10.10;8.80;;;12.00;99.90;;;;;;4947768;28;20479;-81
2022/03/18 12:09:00;;;;;;;17.57;13.53;;;12.00;99.90;;;;;;4943278;29;20471;-81
2022/03/18 12:11:31;;;;;;;13.67;10.47;;;12.00;99.90;;;;;;4954382;29;21015;-80
2022/03/18 12:14:08;;;;;;;15.73;10.90;;;12.10;99.90;;;;;;4962035;28;20459;-80
2022/03/18 12:16:37;;;;;;;9.63;8.40;;;12.10;99.90;;;;;;4945912;29;20471;-80
2022/03/18 12:19:27;;;;;;;16.63;11.10;;;12.10;99.90;;;;;;4944033;29;20634;-81
2022/03/18 12:21:55;;;;;;;13.70;9.60;;;12.20;99.90;;;;;;4943529;28;20510;-81
2022/03/18 12:24:29;;;;;;;10.70;9.10;;;12.20;99.90;;;;;;4944719;29;20443;-80
2022/03/18 12:27:00;;;;;;;11.43;9.93;;;12.30;99.90;;;;;;4959403;28;20451;-80
2022/03/18 12:29:29;;;;;;;16.20;9.70;;;12.40;99.90;;;;;;4943237;29;20462;-80
2022/03/18 12:32:05;;;;;;;10.53;8.33;;;12.40;99.90;;;;;;4944397;28;20448;-80
2022/03/18 12:34:36;;;;;;;11.53;9.60;;;12.50;99.90;;;;;;4951166;28;20474;-80
2022/03/18 12:37:17;;;;;;;12.07;8.13;;;12.60;99.90;;;;;;4961723;28;20457;-80
2022/03/18 12:39:45;;;;;;;10.30;7.07;;;12.60;99.90;;;;;;4955337;28;20451;-81
2022/03/18 12:42:14;;;;;;;7.97;6.93;;;12.70;99.90;;;;;;4944085;28;20494;-81
2022/03/18 12:44:46;;;;;;;9.67;7.53;;;12.80;99.90;;;;;;4946037;29;20455;-80
2022/03/18 12:47:16;;;;;;;11.60;8.27;;;12.80;99.90;;;;;;4951162;29;20466;-80
2022/03/18 12:49:48;;;;;;;9.57;7.97;;;12.80;99.90;;;;;;4964686;28;20469;-80
2022/03/18 12:52:17;;;;;;;10.23;8.30;;;12.90;99.90;;;;;;4965562;28;20480;-80
2022/03/18 12:55:07;;;;;;;10.17;7.40;;;12.90;99.90;;;;;;4952127;28;20489;-80
2022/03/18 12:57:37;;;;;;;8.00;7.17;;;13.00;99.90;;;;;;4948575;29;20446;-80
2022/03/18 13:00:08;;;;;;;12.40;8.23;;;13.00;99.90;;;;;;4962521;29;20782;-80
2022/03/18 13:02:57;;;;;;;10.60;6.83;;;13.10;99.90;;;;;;4947816;28;20463;-80
2022/03/18 13:05:29;;;;;;;11.00;7.93;;;13.10;99.90;;;;;;4963941;29;21031;-80
2022/03/18 13:07:59;;;;;;;12.80;7.90;;;13.10;99.90;;;;;;4967355;28;20545;-80
2022/03/18 13:10:28;;;;;;;8.23;7.40;;;13.10;99.90;;;;;;4966327;28;20986;-80
2022/03/18 13:13:08;;;;;;;10.47;8.60;;;13.20;99.90;;;;;;4966894;28;20458;-80
2022/03/18 13:15:36;;;;;;;9.77;8.33;;;13.20;99.90;;;;;;4969896;28;20500;-81
2022/03/18 13:18:13;;;;;;;13.40;9.63;;;13.30;99.90;;;;;;4968051;28;20455;-81
2022/03/18 13:20:43;;;;;;;14.47;8.80;;;13.30;99.90;;;;;;4960043;29;20469;-81
2022/03/18 13:23:11;;;;;;;11.67;8.80;;;13.40;99.90;;;;;;4949254;29;20479;-80